• Join FlightAware (Why Join?)
  • Login
  • US Flag 
10:17AM EDT


 

Airport Tracker/Info


-or-


 

Live Flight TrackerFlight Track Log ✈ AWI3778 ✈ 23-Jun-2013 ✈ KBTV - KPHL

Flight Track Log - Related Links

Times and Time Zones

All times are in EDT time to prevent confusion due to time zone crossing. See the AWI3778 flight status page for this flight to view local times or setup timezone preferences in your user account.

Time Position Orientation Groundspeed Altitude Reporting Facility
EDT Latitude Longitude Course Direction KTS MPH feet Rate Location/Type
01:52PM 44.3031 -73.0986 194° South 273 314 6,100  Level Boston Center
01:53PM 44.2261 -73.0892 175° South 285 328 8,300 2,100 Climbing Boston Center
01:54PM 44.1550 -73.1258 200° South 280 322 10,400 2,100 Climbing Boston Center
01:55PM 44.0778 -73.1656 200° South 288 331 12,500 1,800 Climbing Boston Center
01:56PM 43.7708 -73.4144 195° South  Level FlightAware Approximate
01:56PM 44.0003 -73.2050 200° South 293 337 14,000  Level Boston Center
01:57PM 43.6711 -73.4511 195° South  Level FlightAware Approximate
01:57PM 43.9064 -73.2497 199° South 316 364 16,000  Level Boston Center
01:58PM 43.5713 -73.4874 194° South  Level FlightAware Approximate
01:58PM 43.8206 -73.2947 201° Southwest 327 376 17,500  Level Boston Center
01:59PM 43.7328 -73.3453 203° Southwest 337 388 18,500 1,140 Climbing Boston Center
02:00PM 43.6569 -73.4186 215° Southwest 337 388 19,800 1,200 Climbing Boston Center
02:01PM 43.5814 -73.5006 218° Southwest 343 395 21,000 1,080 Climbing Boston Center
02:02PM 43.5033 -73.5850 218° Southwest 348 400 22,000 900 Climbing Boston Center
02:03PM 43.4253 -73.6694 218° Southwest 348 400 22,900 840 Climbing Boston Center
02:04PM 43.3453 -73.7533 217° Southwest 354 407 23,700 540 Climbing Boston Center
02:05PM 43.2672 -73.8400 219° Southwest 354 407 24,000 120 Climbing Boston Center
02:06PM 43.1828 -73.9264 217° Southwest 372 428 24,000  Level Boston Center
02:07PM 43.1044 -74.0097 218° Southwest 372 428 24,000  Level Boston Center
02:08PM 43.0242 -74.0931 217° Southwest 372 428 24,000  Level Boston Center
02:09PM 42.9436 -74.1758 217° Southwest 372 428 24,000  Level Boston Center
02:10PM 42.8608 -74.2642 218° Southwest 372 428 24,000  Level Boston Center
02:11PM 42.7825 -74.3467 218° Southwest 372 428 24,000  Level Boston Center
02:12PM 42.6997 -74.4289 216° Southwest 377 434 24,000  Level Boston Center
02:13PM 42.6169 -74.5139 217° Southwest 377 434 24,000  Level Boston Center
02:14PM 42.5319 -74.5983 216° Southwest 377 434 24,000  Level Boston Center
02:15PM 42.4492 -74.6856 218° Southwest 377 434 24,000 -60 Level Boston Center
02:17PM 42.2947 -74.8414 217° Southwest 379 436 23,900 -540 Descending New York Center
02:18PM 42.2131 -74.9203 216° Southwest 379 436 22,500 -1,380 Descending New York Center
02:19PM 42.1247 -75.0042 215° Southwest 372 428 21,100 -1,380 Descending New York Center
02:20PM 42.0369 -75.0739 211° Southwest 372 428 19,800 -1,080 Descending New York Center
02:21PM 41.9511 -75.1464 212° Southwest 372 428 19,000 -420 Descending New York Center
02:22PM 41.8736 -75.2108 212° Southwest 372 428 19,000 -360 Level New York Center
02:23PM 41.7836 -75.2828 211° Southwest 377 434 18,300 -1,260 Descending New York Center
02:24PM 41.6867 -75.3622 211° Southwest 377 434 16,500 -1,740 Descending New York Center
02:25PM 41.5986 -75.4311 210° Southwest 377 434 14,900 -1,680 Descending New York Center
02:26PM 41.5211 -75.4950 212° Southwest 377 434 13,200 -1,440 Descending New York Center
02:27PM 41.4372 -75.5611 211° Southwest 369 425 12,000 -660 Descending New York Center
02:28PM 41.3492 -75.6294 210° Southwest 348 400 12,000  Level New York Center
02:29PM 41.2656 -75.6842 206° Southwest 348 400 12,000  Level New York Center
02:30PM 41.1739 -75.6886 182° South 326 375 12,000  Level New York Center
02:31PM 41.0822 -75.6872 179° South 331 381 12,000  Level New York Center
02:32PM 40.9864 -75.6886 181° South 331 381 12,000  Level New York Center
02:33PM 40.9033 -75.6828 177° South 336 387 12,000  Level New York Center
02:34PM 40.8156 -75.6353 158° South 336 387 12,000  Level New York Center
02:35PM 40.7178 -75.5817 157° South 344 396 12,000 -420 Level New York Center
02:36PM 40.6403 -75.5381 157° South 349 402 11,200 -900 Descending New York Center
02:37PM 40.5631 -75.4944 157° South 333 383 10,200 -660 Descending New York Center
02:38PM 40.4894 -75.4539 157° South 300 345 10,000 -120 Descending New York Center
02:39PM 40.4056 -75.4153 161° South 286 329 10,000 -660 Level New York Center
02:40PM 40.3344 -75.4214 184° South 268 308 8,700 -1,560 Descending New York Center
02:41PM 40.2614 -75.4275 184° South 268 308 7,000 -1,440 Descending New York Center
02:42PM 40.2000 -75.3936 157° South 268 308 6,000 -1,380 Descending New York Center
02:43PM 40.1167 -75.3500 158° South 259 298 4,300 -1,680 Descending Philadelphia TRACON
02:44PM 40.0500 -75.3167 159° South 254 292 2,700 -1,620 Descending Philadelphia TRACON